createdAt,value
2023-02-04T00:01:37.147Z,7.37
2023-02-04T00:04:22.295Z,7.40
2023-02-04T00:07:07.846Z,6.50
2023-02-04T00:09:52.818Z,6.77
2023-02-04T00:12:38.222Z,6.87
2023-02-04T00:15:23.677Z,6.70
2023-02-04T00:18:11.948Z,6.77
2023-02-04T00:20:57.201Z,6.80
2023-02-04T00:23:42.237Z,6.90
2023-02-04T00:26:27.383Z,6.97
2023-02-04T00:29:13.037Z,7.00
2023-02-04T00:31:58.304Z,7.37
2023-02-04T00:34:43.724Z,6.37
2023-02-04T00:37:28.758Z,6.57
2023-02-04T00:40:13.875Z,7.20
2023-02-04T00:42:59.719Z,7.10
2023-02-04T00:45:44.630Z,6.53
2023-02-04T00:48:29.881Z,6.83
2023-02-04T00:51:15.306Z,6.30
2023-02-04T00:54:00.579Z,7.10
2023-02-04T00:56:45.999Z,8.00
2023-02-04T00:59:30.949Z,7.20
2023-02-04T01:02:18.323Z,7.70
2023-02-04T01:05:03.658Z,6.63
2023-02-04T01:07:49.093Z,7.20
2023-02-04T01:10:34.579Z,6.47
2023-02-04T01:13:20.023Z,6.47
2023-02-04T01:16:05.716Z,6.33
2023-02-04T01:18:50.605Z,7.67
2023-02-04T01:21:35.577Z,7.17
2023-02-04T01:24:20.510Z,6.47
2023-02-04T01:27:05.533Z,8.10
2023-02-04T01:29:50.577Z,7.10
2023-02-04T01:32:36.111Z,7.00
2023-02-04T01:35:21.078Z,6.60
2023-02-04T01:38:06.005Z,7.43
2023-02-04T01:40:51.108Z,7.10
2023-02-04T01:43:36.356Z,6.87
2023-02-04T01:46:21.856Z,7.83
2023-02-04T01:49:07.258Z,6.80
2023-02-04T01:51:52.550Z,7.40
2023-02-04T01:54:37.797Z,7.40
2023-02-04T01:57:22.889Z,6.80
2023-02-04T02:00:17.771Z,6.20
2023-02-04T02:03:03.033Z,6.23
2023-02-04T02:05:50.902Z,6.70
2023-02-04T02:08:37.393Z,7.00
2023-02-04T02:11:22.402Z,5.77
2023-02-04T02:14:08.140Z,4.97
2023-02-04T02:16:53.821Z,5.00
2023-02-04T02:19:41.027Z,5.83
2023-02-04T02:22:42.253Z,5.40
2023-02-04T02:25:27.664Z,5.30
2023-02-04T02:28:18.510Z,5.30
2023-02-04T02:31:04.198Z,5.60
2023-02-04T02:33:49.408Z,5.70
2023-02-04T02:36:34.778Z,5.43
2023-02-04T02:39:19.908Z,4.97
2023-02-04T02:42:05.209Z,5.27
2023-02-04T02:44:51.766Z,5.87
2023-02-04T02:47:36.791Z,5.37
2023-02-04T02:50:26.058Z,5.67
2023-02-04T02:53:17.099Z,5.80
2023-02-04T02:56:02.798Z,5.77
2023-02-04T02:58:48.071Z,6.03
2023-02-04T03:01:33.808Z,6.40
2023-02-04T03:04:20.176Z,5.73
2023-02-04T03:07:05.777Z,6.30
2023-02-04T03:09:51.126Z,5.40
2023-02-04T03:12:37.172Z,6.40
2023-02-04T03:15:22.217Z,6.00
2023-02-04T03:18:07.773Z,5.73
2023-02-04T03:20:53.390Z,7.47
2023-02-04T03:23:38.881Z,7.20
2023-02-04T03:26:25.143Z,7.20
2023-02-04T03:29:11.081Z,7.17
2023-02-04T03:31:56.407Z,6.90
2023-02-04T03:34:41.511Z,7.23
2023-02-04T03:37:26.553Z,6.30
2023-02-04T03:40:12.956Z,6.63
2023-02-04T03:42:58.071Z,7.07
2023-02-04T03:45:45.634Z,6.60
2023-02-04T03:48:31.125Z,7.33
2023-02-04T03:51:16.364Z,6.77
2023-02-04T03:54:01.490Z,7.33
2023-02-04T03:56:46.704Z,7.47
2023-02-04T03:59:31.503Z,7.37
2023-02-04T04:02:16.450Z,6.73
2023-02-04T04:05:01.365Z,7.43
2023-02-04T04:07:47.122Z,7.23
2023-02-04T04:10:32.668Z,7.10
2023-02-04T04:13:18.096Z,6.90
2023-02-04T04:16:03.816Z,7.30
2023-02-04T04:18:48.800Z,7.97
2023-02-04T04:21:34.222Z,6.77
2023-02-04T04:24:19.454Z,7.00
2023-02-04T04:27:04.299Z,6.73
2023-02-04T04:29:49.730Z,7.00
2023-02-04T04:32:34.876Z,8.03
2023-02-04T04:35:20.008Z,7.77
2023-02-04T04:38:05.272Z,7.70
2023-02-04T04:40:50.815Z,8.23
2023-02-04T04:43:36.149Z,7.97
2023-02-04T04:46:21.530Z,8.47
2023-02-04T04:49:07.096Z,7.97
2023-02-04T04:51:52.125Z,7.77
2023-02-04T04:54:37.168Z,8.43
2023-02-04T04:57:22.773Z,8.27
2023-02-04T05:00:08.742Z,7.33
2023-02-04T05:02:54.209Z,7.70
2023-02-04T05:05:39.525Z,8.03
2023-02-04T05:08:24.983Z,7.27
2023-02-04T05:11:10.420Z,8.33
2023-02-04T05:13:55.457Z,7.63
2023-02-04T05:16:40.624Z,7.80
2023-02-04T05:19:25.770Z,7.50
2023-02-04T05:22:11.241Z,7.70
2023-02-04T05:24:56.403Z,8.67
2023-02-04T05:27:41.664Z,7.67
2023-02-04T05:30:27.167Z,7.83
2023-02-04T05:33:12.700Z,7.43
2023-02-04T05:35:58.012Z,7.40
2023-02-04T05:38:43.823Z,8.40
2023-02-04T05:41:29.018Z,7.20
2023-02-04T05:44:14.251Z,6.47
2023-02-04T05:46:59.320Z,7.37
2023-02-04T05:49:44.766Z,5.03
2023-02-04T05:52:30.074Z,4.73
2023-02-04T05:55:14.992Z,4.57
2023-02-04T05:57:59.894Z,5.03
2023-02-04T06:00:45.171Z,3.47
2023-02-04T06:03:31.580Z,3.43
2023-02-04T06:06:17.018Z,3.60
2023-02-04T06:09:02.370Z,3.60
2023-02-04T06:11:47.769Z,3.87
2023-02-04T06:14:33.049Z,4.07
2023-02-04T06:17:18.023Z,3.80
2023-02-04T06:20:03.767Z,3.60
2023-02-04T06:22:48.928Z,3.70
2023-02-04T06:25:34.556Z,3.10
2023-02-04T06:28:20.028Z,3.70
2023-02-04T06:31:05.722Z,3.23
2023-02-04T06:33:50.649Z,3.40
2023-02-04T06:36:35.522Z,3.27
2023-02-04T06:39:20.924Z,2.93
2023-02-04T06:42:06.423Z,3.20
2023-02-04T06:44:52.466Z,3.63
2023-02-04T06:47:38.016Z,3.23
2023-02-04T06:50:23.073Z,3.47
2023-02-04T06:53:08.860Z,3.57
2023-02-04T06:55:54.187Z,3.30
2023-02-04T06:58:39.677Z,3.10
2023-02-04T07:01:25.006Z,2.80
2023-02-04T07:04:10.191Z,2.90
2023-02-04T07:06:55.522Z,3.10
2023-02-04T07:09:40.989Z,3.00
2023-02-04T07:12:26.345Z,3.33
2023-02-04T07:15:11.479Z,3.73
2023-02-04T07:17:56.227Z,3.33
2023-02-04T07:20:41.230Z,3.80
2023-02-04T07:23:26.089Z,4.03
2023-02-04T07:26:10.928Z,4.50
2023-02-04T07:28:56.493Z,4.47
2023-02-04T07:31:41.853Z,4.77
2023-02-04T07:34:27.117Z,3.90
2023-02-04T07:37:12.569Z,3.70
2023-02-04T07:39:57.674Z,4.23
2023-02-04T07:42:42.933Z,4.30
2023-02-04T07:45:28.374Z,5.63
2023-02-04T07:48:13.862Z,5.17
2023-02-04T07:50:59.297Z,3.70
2023-02-04T07:53:44.651Z,5.37
2023-02-04T07:56:29.660Z,6.30
2023-02-04T07:59:15.200Z,7.23
2023-02-04T08:02:00.247Z,7.87
2023-02-04T08:04:46.095Z,8.00
2023-02-04T08:07:31.234Z,6.00
2023-02-04T08:10:16.875Z,5.43
2023-02-04T08:13:02.182Z,5.27
2023-02-04T08:15:47.600Z,5.33
2023-02-04T08:18:32.879Z,5.40
2023-02-04T08:21:23.512Z,5.90
2023-02-04T08:24:08.876Z,5.40
2023-02-04T08:26:54.047Z,5.37
2023-02-04T08:29:39.789Z,4.57
2023-02-04T08:32:24.920Z,4.30
2023-02-04T08:35:10.027Z,4.70
2023-02-04T08:37:55.292Z,4.17
2023-02-04T08:40:40.895Z,4.10
2023-02-04T08:43:26.894Z,5.40
2023-02-04T08:46:12.152Z,4.73
2023-02-04T08:48:57.437Z,5.30
2023-02-04T08:51:42.729Z,4.73
2023-02-04T08:54:28.033Z,4.53
2023-02-04T08:57:13.465Z,5.83
2023-02-04T08:59:58.742Z,5.77
2023-02-04T09:02:44.581Z,7.93
2023-02-04T09:05:29.821Z,10.43
2023-02-04T09:08:14.581Z,11.20
2023-02-04T09:11:00.041Z,10.13
2023-02-04T09:13:45.460Z,7.73
2023-02-04T09:16:31.270Z,5.40
2023-02-04T09:19:16.316Z,7.67
2023-02-04T09:22:01.290Z,6.50
2023-02-04T09:24:46.026Z,5.90
2023-02-04T09:27:31.547Z,5.47
2023-02-04T09:30:17.161Z,20.50
2023-02-04T09:33:02.408Z,4.80
2023-02-04T09:35:47.265Z,5.53
2023-02-04T09:38:32.703Z,4.50
2023-02-04T09:41:18.156Z,4.53
2023-02-04T09:44:04.920Z,3.87
2023-02-04T09:46:53.711Z,3.73
2023-02-04T09:49:39.469Z,4.10
2023-02-04T09:52:27.410Z,4.00
2023-02-04T09:55:18.165Z,4.17
2023-02-04T09:58:05.964Z,3.83
2023-02-04T10:01:09.136Z,3.93
2023-02-04T10:03:56.463Z,3.80
2023-02-04T10:06:43.522Z,5.27
2023-02-04T10:09:28.970Z,3.53
2023-02-04T10:12:14.545Z,4.20
2023-02-04T10:14:59.793Z,3.93
2023-02-04T10:17:47.605Z,3.67
2023-02-04T10:20:33.186Z,4.13
2023-02-04T10:23:18.533Z,3.30
2023-02-04T10:26:04.519Z,3.70
2023-02-04T10:28:49.518Z,4.30
2023-02-04T10:31:40.536Z,3.40
2023-02-04T10:34:36.302Z,4.00
2023-02-04T10:37:22.568Z,2.93
2023-02-04T10:40:31.980Z,2.83
2023-02-04T10:43:22.013Z,2.93
2023-02-04T10:46:07.381Z,3.43
2023-02-04T10:48:52.583Z,4.07
2023-02-04T10:51:38.087Z,3.30
2023-02-04T10:54:27.829Z,4.27
2023-02-04T10:57:30.251Z,3.67
2023-02-04T11:00:17.686Z,3.17
2023-02-04T11:03:12.118Z,3.70
2023-02-04T11:05:59.296Z,3.90
2023-02-04T11:08:44.768Z,4.33
2023-02-04T11:11:30.178Z,3.50
2023-02-04T11:14:27.595Z,3.33
2023-02-04T11:17:20.588Z,3.50
2023-02-04T11:20:17.247Z,2.90
2023-02-04T11:23:27.067Z,2.93
2023-02-04T11:26:18.360Z,2.60
2023-02-04T11:29:04.446Z,2.80
2023-02-04T11:31:50.039Z,2.90
2023-02-04T11:34:53.442Z,2.90
2023-02-04T11:37:41.314Z,2.40
2023-02-04T11:40:35.596Z,2.50
2023-02-04T11:43:21.948Z,2.80
2023-02-04T11:46:16.124Z,2.60
2023-02-04T11:49:01.205Z,2.53
2023-02-04T11:51:46.542Z,2.60
2023-02-04T11:54:31.644Z,2.70
2023-02-04T11:57:17.412Z,2.53
2023-02-04T12:00:02.760Z,2.80
2023-02-04T12:02:50.782Z,2.40
2023-02-04T12:05:44.405Z,2.60
2023-02-04T12:08:35.423Z,2.60
2023-02-04T12:11:28.104Z,2.40
2023-02-04T12:14:17.735Z,3.00
2023-02-04T12:17:16.337Z,2.60
2023-02-04T12:20:01.783Z,2.37
2023-02-04T12:22:46.660Z,2.20
2023-02-04T12:25:32.334Z,2.40
2023-02-04T12:28:17.571Z,2.20
2023-02-04T12:31:03.172Z,1.90
2023-02-04T12:33:48.146Z,2.30
2023-02-04T12:36:33.153Z,2.30
2023-02-04T12:39:18.462Z,2.47
2023-02-04T12:42:04.048Z,1.90
2023-02-04T12:44:49.240Z,2.03
2023-02-04T12:47:34.203Z,1.90
2023-02-04T12:50:21.009Z,2.03
2023-02-04T12:53:05.978Z,2.00
2023-02-04T12:55:51.740Z,2.10
2023-02-04T12:58:37.081Z,2.10
2023-02-04T13:01:22.354Z,2.30
2023-02-04T13:04:07.837Z,2.40
2023-02-04T13:06:53.149Z,2.40
2023-02-04T13:09:38.624Z,2.97
2023-02-04T13:12:24.019Z,2.80
2023-02-04T13:15:10.309Z,2.50
2023-02-04T13:17:55.752Z,2.30
2023-02-04T13:20:41.321Z,2.50
2023-02-04T13:23:26.637Z,2.23
2023-02-04T13:26:11.894Z,2.10
2023-02-04T13:28:57.395Z,2.13
2023-02-04T13:31:43.042Z,2.47
2023-02-04T13:34:28.755Z,2.50
2023-02-04T13:37:14.206Z,2.30
2023-02-04T13:39:59.160Z,1.97
2023-02-04T13:42:44.553Z,2.20
2023-02-04T13:45:30.722Z,2.20
2023-02-04T13:48:16.677Z,2.47
2023-02-04T13:51:02.145Z,2.90
2023-02-04T13:53:47.105Z,2.57
2023-02-04T13:56:32.396Z,2.50
2023-02-04T13:59:17.254Z,2.70
2023-02-04T14:02:02.791Z,3.47
2023-02-04T14:04:47.938Z,2.47
2023-02-04T14:07:33.110Z,2.93
2023-02-04T14:10:18.592Z,4.53
2023-02-04T14:13:03.586Z,2.67
2023-02-04T14:15:49.026Z,2.63
2023-02-04T14:18:34.401Z,2.43
2023-02-04T14:21:19.344Z,2.90
2023-02-04T14:24:04.971Z,2.90
2023-02-04T14:26:50.670Z,2.67
2023-02-04T14:29:39.075Z,2.50
2023-02-04T14:32:24.425Z,2.90
2023-02-04T14:35:09.585Z,2.60
2023-02-04T14:37:54.799Z,2.57
2023-02-04T14:40:39.553Z,2.60
2023-02-04T14:43:24.620Z,2.53
2023-02-04T14:46:09.841Z,2.50
2023-02-04T14:48:55.205Z,2.40
2023-02-04T14:51:41.256Z,2.60
2023-02-04T14:54:26.547Z,2.60
2023-02-04T14:57:12.228Z,2.60
2023-02-04T14:59:57.575Z,2.70
2023-02-04T15:02:43.538Z,3.10
2023-02-04T15:05:29.036Z,9.33
2023-02-04T15:08:14.253Z,9.07
2023-02-04T15:10:59.431Z,3.63
2023-02-04T15:13:44.768Z,4.83
2023-02-04T15:16:30.749Z,2.73
2023-02-04T15:19:17.506Z,2.80
2023-02-04T15:22:02.583Z,2.77
2023-02-04T15:24:47.980Z,3.17
2023-02-04T15:27:32.872Z,2.97
2023-02-04T15:30:17.915Z,2.90
2023-02-04T15:33:03.161Z,3.20
2023-02-04T15:35:48.422Z,4.00
2023-02-04T15:38:35.167Z,3.30
2023-02-04T15:41:20.404Z,3.00
2023-02-04T15:44:06.091Z,2.93
2023-02-04T15:46:50.965Z,2.57
2023-02-04T15:49:36.388Z,2.60
2023-02-04T15:52:25.256Z,3.03
2023-02-04T15:55:10.779Z,2.80
2023-02-04T15:57:56.201Z,2.73
2023-02-04T16:00:44.321Z,2.53
2023-02-04T16:03:29.424Z,2.73
2023-02-04T16:06:14.277Z,2.70
2023-02-04T16:09:00.047Z,4.27
2023-02-04T16:11:45.474Z,6.63
2023-02-04T16:14:30.725Z,6.20
2023-02-04T16:17:15.656Z,6.13
2023-02-04T16:20:01.123Z,6.07
2023-02-04T16:22:46.642Z,5.30
2023-02-04T16:25:32.052Z,9.90
2023-02-04T16:28:17.673Z,6.13
2023-02-04T16:31:02.786Z,6.83
2023-02-04T16:33:48.326Z,7.10
2023-02-04T16:36:33.372Z,27.67
2023-02-04T16:39:18.936Z,47.67
2023-02-04T16:42:07.686Z,10.47
2023-02-04T16:44:52.739Z,8.00
2023-02-04T16:47:38.273Z,5.73
2023-02-04T16:50:23.536Z,6.33
2023-02-04T16:53:08.522Z,4.97
2023-02-04T16:55:53.735Z,6.07
2023-02-04T16:58:39.066Z,6.60
2023-02-04T17:01:24.761Z,6.23
2023-02-04T17:04:10.028Z,5.80
2023-02-04T17:06:55.465Z,5.67
2023-02-04T17:09:40.924Z,7.33
2023-02-04T17:12:27.408Z,6.10
2023-02-04T17:15:12.539Z,6.07
2023-02-04T17:17:57.795Z,5.93
2023-02-04T17:20:43.199Z,6.17
2023-02-04T17:23:28.604Z,6.83
2023-02-04T17:26:13.719Z,13.40
2023-02-04T17:28:59.024Z,11.27
2023-02-04T17:31:44.365Z,8.80
2023-02-04T17:34:29.607Z,6.00
2023-02-04T17:37:14.375Z,6.17
2023-02-04T17:39:59.904Z,8.57
2023-02-04T17:42:45.377Z,15.20
2023-02-04T17:45:31.395Z,11.97
2023-02-04T17:48:17.794Z,13.17
2023-02-04T17:51:03.642Z,40.43
2023-02-04T17:53:48.964Z,42.60
2023-02-04T17:56:34.549Z,22.30
2023-02-04T17:59:19.798Z,18.57
2023-02-04T18:02:22.834Z,12.77
2023-02-04T18:05:14.432Z,12.33
2023-02-04T18:08:05.251Z,9.53
2023-02-04T18:10:53.205Z,10.10
2023-02-04T18:13:38.230Z,11.00
2023-02-04T18:16:27.843Z,9.60
2023-02-04T18:19:26.105Z,10.60
2023-02-04T18:22:18.158Z,11.50
2023-02-04T18:25:12.819Z,11.20
2023-02-04T18:28:02.096Z,10.83
2023-02-04T18:30:53.120Z,11.33
2023-02-04T18:33:38.371Z,9.40
2023-02-04T18:36:24.239Z,8.40
2023-02-04T18:39:18.585Z,8.17
2023-02-04T18:42:15.632Z,8.03
2023-02-04T18:45:19.954Z,7.83
2023-02-04T18:48:20.449Z,7.20
2023-02-04T18:51:23.449Z,8.30
2023-02-04T18:54:20.907Z,8.93
2023-02-04T18:57:12.425Z,9.40
2023-02-04T19:00:23.634Z,12.53
2023-02-04T19:03:24.979Z,29.10
2023-02-04T19:06:25.606Z,11.03
2023-02-04T19:09:10.799Z,12.23
2023-02-04T19:12:16.801Z,14.40
2023-02-04T19:15:14.370Z,16.00
2023-02-04T19:18:17.679Z,14.37
2023-02-04T19:21:21.096Z,13.30
2023-02-04T19:24:15.696Z,13.17
2023-02-04T19:27:01.855Z,13.17
2023-02-04T19:29:48.657Z,12.83
2023-02-04T19:32:57.924Z,12.47
2023-02-04T19:35:43.692Z,13.60
2023-02-04T19:38:40.769Z,13.20
2023-02-04T19:41:30.407Z,13.33
2023-02-04T19:44:15.397Z,13.67
2023-02-04T19:47:19.739Z,11.60
2023-02-04T19:50:13.947Z,13.70
2023-02-04T19:53:03.174Z,13.33
2023-02-04T19:55:52.222Z,15.90
2023-02-04T19:58:42.169Z,17.93
2023-02-04T20:01:27.050Z,14.80
2023-02-04T20:04:20.619Z,13.47
2023-02-04T20:07:21.739Z,24.07
2023-02-04T20:10:06.537Z,18.03
2023-02-04T20:12:58.937Z,14.80
2023-02-04T20:15:44.349Z,14.90
2023-02-04T20:18:29.713Z,14.10
2023-02-04T20:21:14.577Z,16.90
2023-02-04T20:24:00.667Z,14.87
2023-02-04T20:26:45.739Z,15.23
2023-02-04T20:29:34.444Z,18.10
2023-02-04T20:32:20.932Z,16.20
2023-02-04T20:35:09.236Z,13.43
2023-02-04T20:37:59.214Z,13.43
2023-02-04T20:40:44.794Z,12.03
2023-02-04T20:43:34.226Z,11.70
2023-02-04T20:46:25.429Z,11.53
2023-02-04T20:49:22.140Z,14.80
2023-02-04T20:52:42.271Z,13.17
2023-02-04T20:55:34.633Z,11.50
2023-02-04T20:58:27.317Z,10.63
2023-02-04T21:01:35.342Z,10.13
2023-02-04T21:04:29.971Z,8.83
2023-02-04T21:07:22.874Z,7.90
2023-02-04T21:10:08.361Z,9.17
2023-02-04T21:12:56.215Z,8.87
2023-02-04T21:15:41.460Z,7.70
2023-02-04T21:18:27.177Z,7.80
2023-02-04T21:21:14.029Z,7.93
2023-02-04T21:23:59.127Z,7.63
2023-02-04T21:26:44.736Z,8.60
2023-02-04T21:29:30.149Z,8.30
2023-02-04T21:32:15.670Z,8.07
2023-02-04T21:35:00.916Z,7.67
2023-02-04T21:37:46.242Z,11.00
2023-02-04T21:40:32.463Z,7.87
2023-02-04T21:43:17.610Z,7.93
2023-02-04T21:46:02.596Z,8.30
2023-02-04T21:48:47.985Z,10.00
2023-02-04T21:51:33.100Z,13.43
2023-02-04T21:54:18.566Z,28.20
2023-02-04T21:57:03.859Z,20.00
2023-02-04T21:59:49.213Z,15.53
2023-02-04T22:02:40.549Z,15.00
2023-02-04T22:05:26.152Z,12.13
2023-02-04T22:08:11.681Z,12.20
2023-02-04T22:10:56.842Z,10.03
2023-02-04T22:13:42.280Z,10.03
2023-02-04T22:16:27.579Z,11.27
2023-02-04T22:19:12.872Z,10.77
2023-02-04T22:21:58.211Z,11.20
2023-02-04T22:24:43.663Z,10.67
2023-02-04T22:27:28.708Z,9.30
2023-02-04T22:30:16.089Z,9.43
2023-02-04T22:33:01.583Z,9.60
2023-02-04T22:35:47.104Z,9.57
2023-02-04T22:38:32.652Z,9.57
2023-02-04T22:41:17.956Z,9.20
2023-02-04T22:44:03.124Z,9.93
2023-02-04T22:46:48.426Z,10.10
2023-02-04T22:49:33.820Z,10.23
2023-02-04T22:52:18.675Z,9.87
2023-02-04T22:55:04.460Z,10.30
2023-02-04T22:57:49.433Z,10.00
2023-02-04T23:00:34.749Z,10.50
2023-02-04T23:03:20.367Z,9.70
2023-02-04T23:06:06.141Z,11.10
2023-02-04T23:08:51.608Z,10.47
2023-02-04T23:11:36.845Z,11.43
2023-02-04T23:14:22.075Z,11.63
2023-02-04T23:17:07.993Z,12.60
2023-02-04T23:19:53.417Z,12.47
2023-02-04T23:22:38.921Z,12.40
2023-02-04T23:25:24.395Z,12.20
2023-02-04T23:28:09.586Z,12.83
2023-02-04T23:30:55.126Z,13.60
2023-02-04T23:33:40.118Z,12.73
2023-02-04T23:36:25.075Z,12.20
2023-02-04T23:39:10.237Z,12.60
2023-02-04T23:41:55.985Z,12.43
2023-02-04T23:44:41.138Z,13.00
2023-02-04T23:47:26.027Z,12.50
2023-02-04T23:50:11.459Z,12.20
2023-02-04T23:52:56.316Z,12.97
2023-02-04T23:55:41.154Z,13.23
2023-02-04T23:58:26.564Z,12.80
